createdAt,value
2019-05-25T00:00:35.431Z,17.60
2019-05-25T00:01:35.386Z,17.59
2019-05-25T00:02:35.344Z,17.60
2019-05-25T00:03:35.298Z,17.52
2019-05-25T00:04:35.233Z,17.52
2019-05-25T00:05:35.198Z,17.46
2019-05-25T00:06:35.146Z,17.45
2019-05-25T00:07:35.111Z,17.34
2019-05-25T00:08:35.049Z,17.38
2019-05-25T00:09:34.998Z,17.36
2019-05-25T00:10:34.940Z,17.38
2019-05-25T00:11:34.914Z,17.33
2019-05-25T00:12:34.844Z,17.41
2019-05-25T00:13:34.818Z,17.34
2019-05-25T00:14:34.749Z,17.39
2019-05-25T00:15:34.769Z,17.30
2019-05-25T00:16:34.652Z,17.34
2019-05-25T00:17:34.627Z,17.27
2019-05-25T00:18:34.560Z,17.24
2019-05-25T00:19:34.531Z,17.27
2019-05-25T00:20:34.467Z,17.27
2019-05-25T00:21:34.422Z,17.23
2019-05-25T00:22:34.362Z,17.26
2019-05-25T00:23:34.326Z,17.19
2019-05-25T00:24:34.279Z,17.29
2019-05-25T00:25:34.242Z,17.34
2019-05-25T00:26:34.182Z,17.26
2019-05-25T00:27:34.137Z,17.16
2019-05-25T00:28:34.085Z,17.12
2019-05-25T00:29:34.035Z,17.22
2019-05-25T00:30:33.988Z,17.20
2019-05-25T00:31:33.927Z,17.15
2019-05-25T00:32:33.880Z,17.15
2019-05-25T00:33:34.032Z,17.15
2019-05-25T00:34:33.781Z,17.12
2019-05-25T00:35:33.762Z,17.11
2019-05-25T00:36:33.698Z,17.06
2019-05-25T00:37:33.661Z,17.04
2019-05-25T00:38:33.601Z,17.12
2019-05-25T00:39:33.564Z,16.96
2019-05-25T00:40:33.492Z,16.91
2019-05-25T00:41:33.442Z,16.96
2019-05-25T00:42:33.394Z,16.93
2019-05-25T00:43:33.356Z,16.96
2019-05-25T00:44:33.306Z,16.97
2019-05-25T00:45:33.270Z,16.83
2019-05-25T00:46:33.215Z,16.84
2019-05-25T00:47:33.177Z,16.79
2019-05-25T00:48:33.105Z,16.90
2019-05-25T00:49:33.064Z,16.75
2019-05-25T00:50:33.020Z,16.90
2019-05-25T00:51:32.958Z,16.86
2019-05-25T00:52:32.922Z,16.79
2019-05-25T00:53:32.882Z,16.78
2019-05-25T00:54:32.825Z,16.71
2019-05-25T00:55:32.776Z,16.76
2019-05-25T00:56:32.716Z,16.72
2019-05-25T00:57:32.680Z,16.78
2019-05-25T00:58:32.631Z,16.72
2019-05-25T00:59:32.583Z,16.69
2019-05-25T01:00:32.530Z,16.75
2019-05-25T01:01:32.481Z,16.72
2019-05-25T01:02:32.446Z,16.65
2019-05-25T01:03:32.393Z,16.58
2019-05-25T01:04:32.348Z,16.60
2019-05-25T01:05:32.280Z,16.66
2019-05-25T01:06:32.238Z,16.57
2019-05-25T01:07:32.181Z,16.64
2019-05-25T01:08:32.133Z,16.60
2019-05-25T01:09:32.122Z,16.56
2019-05-25T01:10:32.062Z,16.50
2019-05-25T01:11:32.000Z,16.49
2019-05-25T01:12:31.939Z,16.41
2019-05-25T01:13:31.890Z,16.53
2019-05-25T01:14:31.850Z,16.50
2019-05-25T01:15:31.808Z,16.50
2019-05-25T01:16:31.755Z,16.53
2019-05-25T01:17:31.709Z,16.54
2019-05-25T01:18:31.655Z,16.43
2019-05-25T01:19:31.598Z,16.50
2019-05-25T01:20:31.563Z,16.50
2019-05-25T01:21:31.500Z,16.50
2019-05-25T01:22:31.476Z,16.47
2019-05-25T01:23:31.415Z,16.41
2019-05-25T01:24:43.817Z,16.46
2019-05-25T01:25:31.322Z,16.51
2019-05-25T01:26:31.278Z,16.54
2019-05-25T01:27:31.257Z,16.47
2019-05-25T01:28:31.184Z,16.46
2019-05-25T01:29:31.122Z,16.43
2019-05-25T01:30:31.062Z,16.36
2019-05-25T01:31:31.013Z,16.39
2019-05-25T01:32:30.981Z,16.42
2019-05-25T01:33:30.953Z,16.49
2019-05-25T01:34:30.879Z,16.36
2019-05-25T01:35:30.827Z,16.50
2019-05-25T01:36:30.770Z,16.50
2019-05-25T01:37:30.732Z,16.43
2019-05-25T01:38:30.687Z,16.43
2019-05-25T01:39:30.632Z,16.35
2019-05-25T01:40:30.587Z,16.36
2019-05-25T01:41:30.539Z,16.36
2019-05-25T01:42:30.486Z,16.35
2019-05-25T01:43:30.437Z,16.28
2019-05-25T01:44:30.392Z,16.23
2019-05-25T01:45:30.341Z,16.15
2019-05-25T01:46:30.291Z,16.24
2019-05-25T01:47:30.233Z,16.16
2019-05-25T01:48:30.185Z,16.26
2019-05-25T01:49:30.159Z,16.23
2019-05-25T01:50:30.095Z,16.29
2019-05-25T01:51:30.059Z,16.21
2019-05-25T01:52:30.002Z,16.12
2019-05-25T01:53:29.953Z,16.13
2019-05-25T01:54:29.894Z,16.12
2019-05-25T01:55:29.864Z,16.16
2019-05-25T01:56:29.805Z,16.15
2019-05-25T01:57:29.758Z,16.09
2019-05-25T01:58:29.701Z,16.01
2019-05-25T01:59:29.656Z,16.10
2019-05-25T02:00:29.609Z,16.12
2019-05-25T02:01:29.562Z,16.16
2019-05-25T02:02:29.509Z,16.15
2019-05-25T02:03:29.473Z,16.15
2019-05-25T02:04:29.414Z,16.10
2019-05-25T02:05:29.355Z,16.04
2019-05-25T02:06:29.323Z,16.05
2019-05-25T02:07:29.280Z,16.05
2019-05-25T02:08:29.220Z,16.10
2019-05-25T02:09:29.179Z,16.16
2019-05-25T02:10:29.122Z,16.09
2019-05-25T02:11:29.082Z,16.09
2019-05-25T02:12:29.023Z,16.12
2019-05-25T02:13:28.963Z,15.98
2019-05-25T02:14:28.914Z,15.98
2019-05-25T02:15:28.865Z,15.98
2019-05-25T02:16:28.830Z,15.92
2019-05-25T02:17:28.792Z,15.98
2019-05-25T02:18:28.735Z,16.00
2019-05-25T02:19:28.694Z,16.00
2019-05-25T02:20:28.620Z,15.95
2019-05-25T02:21:28.583Z,15.95
2019-05-25T02:22:28.532Z,15.90
2019-05-25T02:23:28.489Z,15.92
2019-05-25T02:24:28.446Z,15.94
2019-05-25T02:25:28.387Z,15.97
2019-05-25T02:26:28.341Z,16.00
2019-05-25T02:27:28.290Z,15.94
2019-05-25T02:28:28.253Z,15.88
2019-05-25T02:29:28.192Z,16.00
2019-05-25T02:30:28.134Z,15.91
2019-05-25T02:31:28.102Z,15.90
2019-05-25T02:32:28.044Z,15.97
2019-05-25T02:33:28.008Z,15.95
2019-05-25T02:34:27.934Z,15.90
2019-05-25T02:35:27.908Z,15.84
2019-05-25T02:36:27.862Z,15.79
2019-05-25T02:37:27.787Z,15.86
2019-05-25T02:38:27.738Z,15.80
2019-05-25T02:39:27.689Z,15.77
2019-05-25T02:40:27.659Z,15.79
2019-05-25T02:41:27.604Z,15.83
2019-05-25T02:42:27.555Z,15.88
2019-05-25T02:43:27.508Z,15.88
2019-05-25T02:44:27.465Z,15.94
2019-05-25T02:45:27.395Z,15.82
2019-05-25T02:46:27.359Z,15.75
2019-05-25T02:47:27.305Z,15.91
2019-05-25T02:48:27.264Z,15.98
2019-05-25T02:49:27.223Z,15.94
2019-05-25T02:50:27.153Z,16.04
2019-05-25T02:51:27.114Z,15.98
2019-05-25T02:52:27.052Z,16.01
2019-05-25T02:53:27.066Z,16.05
2019-05-25T02:54:26.982Z,15.95
2019-05-25T02:55:34.486Z,16.01
2019-05-25T02:56:26.866Z,15.91
2019-05-25T02:57:26.821Z,15.98
2019-05-25T02:58:26.783Z,15.94
2019-05-25T02:59:26.722Z,15.98
2019-05-25T03:00:26.672Z,15.97
2019-05-25T03:01:26.632Z,15.91
2019-05-25T03:02:26.575Z,15.92
2019-05-25T03:03:26.531Z,15.80
2019-05-25T03:04:26.478Z,15.80
2019-05-25T03:05:26.638Z,15.83
2019-05-25T03:06:26.379Z,15.90
2019-05-25T03:07:26.340Z,15.79
2019-05-25T03:08:26.282Z,15.72
2019-05-25T03:09:26.244Z,15.94
2019-05-25T03:10:26.183Z,15.80
2019-05-25T03:11:26.121Z,15.86
2019-05-25T03:12:26.088Z,15.77
2019-05-25T03:13:26.033Z,15.83
2019-05-25T03:14:25.986Z,15.86
2019-05-25T03:15:25.933Z,15.94
2019-05-25T03:16:25.893Z,15.91
2019-05-25T03:17:25.853Z,15.86
2019-05-25T03:18:25.786Z,15.83
2019-05-25T03:19:25.753Z,15.82
2019-05-25T03:20:25.704Z,15.76
2019-05-25T03:21:25.645Z,15.79
2019-05-25T03:22:25.596Z,15.80
2019-05-25T03:23:25.557Z,15.80
2019-05-25T03:24:25.497Z,15.83
2019-05-25T03:25:25.443Z,15.73
2019-05-25T03:26:25.399Z,15.79
2019-05-25T03:27:25.345Z,15.80
2019-05-25T03:28:25.296Z,15.80
2019-05-25T03:29:25.286Z,15.75
2019-05-25T03:30:25.405Z,15.73
2019-05-25T03:31:25.166Z,15.73
2019-05-25T03:32:25.114Z,15.62
2019-05-25T03:33:25.047Z,15.64
2019-05-25T03:34:25.005Z,15.65
2019-05-25T03:35:24.958Z,15.59
2019-05-25T03:36:24.908Z,15.51
2019-05-25T03:37:24.861Z,15.54
2019-05-25T03:38:24.818Z,15.54
2019-05-25T03:39:24.760Z,15.52
2019-05-25T03:40:24.699Z,15.47
2019-05-25T03:41:24.667Z,15.49
2019-05-25T03:42:24.551Z,15.54
2019-05-25T03:43:24.573Z,15.54
2019-05-25T03:44:24.517Z,15.46
2019-05-25T03:45:24.479Z,15.49
2019-05-25T03:46:24.404Z,15.37
2019-05-25T03:47:24.376Z,15.36
2019-05-25T03:48:24.330Z,15.25
2019-05-25T03:49:24.270Z,15.35
2019-05-25T03:50:24.229Z,15.21
2019-05-25T03:51:24.171Z,15.21
2019-05-25T03:52:24.133Z,15.33
2019-05-25T03:53:24.068Z,15.28
2019-05-25T03:54:24.019Z,15.24
2019-05-25T03:55:23.961Z,15.17
2019-05-25T03:56:23.863Z,15.28
2019-05-25T03:57:23.874Z,15.28
2019-05-25T03:58:23.826Z,15.21
2019-05-25T03:59:23.763Z,15.14
2019-05-25T04:00:23.736Z,15.19
2019-05-25T04:01:23.690Z,15.21
2019-05-25T04:02:23.640Z,15.19
2019-05-25T04:03:23.588Z,15.18
2019-05-25T04:04:23.542Z,15.18
2019-05-25T04:05:23.467Z,15.17
2019-05-25T04:06:23.462Z,15.18
2019-05-25T04:07:23.369Z,15.03
2019-05-25T04:08:23.328Z,15.10
2019-05-25T04:09:23.294Z,15.10
2019-05-25T04:10:23.232Z,15.04
2019-05-25T04:11:23.196Z,15.09
2019-05-25T04:12:23.149Z,15.07
2019-05-25T04:13:23.088Z,15.06
2019-05-25T04:14:23.031Z,15.06
2019-05-25T04:15:22.998Z,14.99
2019-05-25T04:16:22.932Z,15.07
2019-05-25T04:17:22.825Z,14.99
2019-05-25T04:18:22.825Z,15.09
2019-05-25T04:19:22.776Z,15.00
2019-05-25T04:20:22.768Z,15.00
2019-05-25T04:21:22.699Z,15.00
2019-05-25T04:22:22.628Z,15.02
2019-05-25T04:23:22.595Z,15.02
2019-05-25T04:24:22.542Z,15.00
2019-05-25T04:25:22.491Z,15.07
2019-05-25T04:26:23.090Z,14.94
2019-05-25T04:27:22.405Z,14.97
2019-05-25T04:28:22.342Z,14.92
2019-05-25T04:29:22.281Z,14.84
2019-05-25T04:30:22.433Z,14.84
2019-05-25T04:31:22.205Z,14.84
2019-05-25T04:32:22.183Z,14.99
2019-05-25T04:33:22.085Z,14.92
2019-05-25T04:34:22.083Z,14.94
2019-05-25T04:35:21.985Z,14.96
2019-05-25T04:36:21.935Z,14.84
2019-05-25T04:37:21.896Z,14.85
2019-05-25T04:38:21.848Z,14.84
2019-05-25T04:39:21.786Z,14.81
2019-05-25T04:40:23.106Z,14.81
2019-05-25T04:41:21.688Z,14.69
2019-05-25T04:42:21.650Z,14.66
2019-05-25T04:43:21.652Z,14.70
2019-05-25T04:44:21.552Z,14.70
2019-05-25T04:45:21.502Z,14.66
2019-05-25T04:46:21.733Z,14.63
2019-05-25T04:47:26.780Z,14.63
2019-05-25T04:48:21.349Z,14.72
2019-05-25T04:49:21.292Z,14.65
2019-05-25T04:50:21.244Z,14.68
2019-05-25T04:51:21.216Z,14.65
2019-05-25T04:52:21.152Z,14.63
2019-05-25T04:53:21.101Z,14.62
2019-05-25T04:54:21.043Z,14.60
2019-05-25T04:55:21.019Z,14.63
2019-05-25T04:56:20.965Z,14.66
2019-05-25T04:57:20.919Z,14.54
2019-05-25T04:58:20.856Z,14.58
2019-05-25T04:59:20.797Z,14.50
2019-05-25T05:00:24.416Z,14.45
2019-05-25T05:01:22.582Z,14.50
2019-05-25T05:02:20.662Z,14.58
2019-05-25T05:03:20.609Z,14.44
2019-05-25T05:04:20.572Z,14.41
2019-05-25T05:05:20.510Z,14.40
2019-05-25T05:06:20.447Z,14.45
2019-05-25T05:07:20.398Z,14.40
2019-05-25T05:08:20.361Z,14.53
2019-05-25T05:09:20.314Z,14.37
2019-05-25T05:10:20.280Z,14.37
2019-05-25T05:11:20.198Z,14.33
2019-05-25T05:12:20.162Z,14.41
2019-05-25T05:13:20.109Z,14.40
2019-05-25T05:14:20.050Z,14.40
2019-05-25T05:15:20.023Z,14.26
2019-05-25T05:16:19.974Z,14.29
2019-05-25T05:17:19.925Z,14.36
2019-05-25T05:18:19.873Z,14.32
2019-05-25T05:19:19.800Z,14.25
2019-05-25T05:20:19.765Z,14.25
2019-05-25T05:21:19.711Z,14.37
2019-05-25T05:22:19.654Z,14.35
2019-05-25T05:23:19.601Z,14.32
2019-05-25T05:24:19.560Z,14.28
2019-05-25T05:25:19.527Z,14.25
2019-05-25T05:26:19.463Z,14.22
2019-05-25T05:27:19.411Z,14.20
2019-05-25T05:28:19.365Z,14.20
2019-05-25T05:29:19.310Z,14.14
2019-05-25T05:30:22.705Z,14.12
2019-05-25T05:31:23.635Z,14.08
2019-05-25T05:32:27.655Z,14.07
2019-05-25T05:33:19.116Z,14.11
2019-05-25T05:34:19.062Z,14.07
2019-05-25T05:35:19.025Z,14.05
2019-05-25T05:36:18.966Z,14.03
2019-05-25T05:37:18.917Z,14.07
2019-05-25T05:38:18.854Z,14.05
2019-05-25T05:39:18.805Z,14.10
2019-05-25T05:40:18.776Z,14.07
2019-05-25T05:41:18.721Z,14.04
2019-05-25T05:42:18.669Z,14.14
2019-05-25T05:43:18.620Z,14.05
2019-05-25T05:44:18.576Z,14.07
2019-05-25T05:45:18.513Z,14.07
2019-05-25T05:46:18.468Z,14.20
2019-05-25T05:47:18.405Z,14.03
2019-05-25T05:48:18.396Z,14.08
2019-05-25T05:49:18.305Z,13.99
2019-05-25T05:50:18.255Z,14.00
2019-05-25T05:51:18.226Z,14.08
2019-05-25T05:52:18.179Z,13.93
2019-05-25T05:53:18.106Z,13.96
2019-05-25T05:54:18.056Z,13.96
2019-05-25T05:55:18.005Z,13.89
2019-05-25T05:56:17.967Z,13.90
2019-05-25T05:57:17.918Z,13.99
2019-05-25T05:58:17.856Z,13.93
2019-05-25T05:59:17.805Z,13.97
2019-05-25T06:00:17.781Z,13.99
2019-05-25T06:01:17.718Z,14.04
2019-05-25T06:02:17.683Z,14.04
2019-05-25T06:03:17.606Z,13.95
2019-05-25T06:04:17.556Z,13.95
2019-05-25T06:05:17.513Z,13.85
2019-05-25T06:06:17.480Z,13.79
2019-05-25T06:07:17.427Z,13.79
2019-05-25T06:08:17.368Z,13.83
2019-05-25T06:09:17.305Z,13.89
2019-05-25T06:10:17.267Z,13.78
2019-05-25T06:11:17.215Z,13.75
2019-05-25T06:12:17.167Z,13.78
2019-05-25T06:13:17.106Z,13.77
2019-05-25T06:14:17.076Z,13.86
2019-05-25T06:15:17.018Z,13.75
2019-05-25T06:16:16.979Z,13.75
2019-05-25T06:17:16.916Z,13.79
2019-05-25T06:18:16.879Z,13.77
2019-05-25T06:19:16.830Z,13.83
2019-05-25T06:20:16.773Z,13.83
2019-05-25T06:21:16.724Z,13.78
2019-05-25T06:22:16.679Z,13.77
2019-05-25T06:23:16.629Z,13.71
2019-05-25T06:24:16.566Z,13.74
2019-05-25T06:25:16.523Z,13.72
2019-05-25T06:26:16.463Z,13.65
2019-05-25T06:27:26.884Z,13.71
2019-05-25T06:28:20.160Z,13.81
2019-05-25T06:29:16.319Z,13.78
2019-05-25T06:30:16.254Z,13.83
2019-05-25T06:31:16.231Z,13.83
2019-05-25T06:32:16.166Z,13.77
2019-05-25T06:33:16.116Z,13.79
2019-05-25T06:34:16.066Z,13.79
2019-05-25T06:35:16.016Z,13.81
2019-05-25T06:36:15.969Z,13.77
2019-05-25T06:37:15.903Z,13.77
2019-05-25T06:38:15.853Z,13.71
2019-05-25T06:39:15.802Z,13.75
2019-05-25T06:40:15.777Z,13.68
2019-05-25T06:41:15.715Z,13.71
2019-05-25T06:42:15.674Z,13.71
2019-05-25T06:43:15.605Z,13.59
2019-05-25T06:44:15.555Z,13.63
2019-05-25T06:45:15.516Z,13.65
2019-05-25T06:46:15.471Z,13.56
2019-05-25T06:47:15.425Z,13.56
2019-05-25T06:48:15.352Z,13.60
2019-05-25T06:49:15.314Z,13.62
2019-05-25T06:50:15.252Z,13.57
2019-05-25T06:51:15.210Z,13.60
2019-05-25T06:52:15.151Z,13.53
2019-05-25T06:53:15.109Z,13.59
2019-05-25T06:54:15.064Z,13.49
2019-05-25T06:55:15.012Z,13.53
2019-05-25T06:56:14.982Z,13.52
2019-05-25T06:57:14.911Z,13.59
2019-05-25T06:58:14.850Z,13.57
2019-05-25T06:59:14.833Z,13.53
2019-05-25T07:00:19.676Z,13.54
2019-05-25T07:01:14.700Z,13.54
2019-05-25T07:02:14.657Z,13.47
2019-05-25T07:03:14.650Z,13.50
2019-05-25T07:04:14.548Z,13.47
2019-05-25T07:05:14.498Z,13.39
2019-05-25T07:06:14.461Z,13.49
2019-05-25T07:07:14.421Z,13.47
2019-05-25T07:08:14.360Z,13.49
2019-05-25T07:09:14.316Z,13.46
2019-05-25T07:10:14.246Z,13.38
2019-05-25T07:11:14.221Z,13.41
2019-05-25T07:12:14.157Z,13.37
2019-05-25T07:13:14.108Z,13.38
2019-05-25T07:14:14.071Z,13.33
2019-05-25T07:15:14.022Z,13.27
2019-05-25T07:16:13.966Z,13.30
2019-05-25T07:17:13.902Z,13.28
2019-05-25T07:18:13.844Z,13.31
2019-05-25T07:19:13.793Z,13.35
2019-05-25T07:20:13.958Z,13.23
2019-05-25T07:21:13.693Z,13.37
2019-05-25T07:22:13.657Z,13.37
2019-05-25T07:23:13.617Z,13.30
2019-05-25T07:24:13.541Z,13.33
2019-05-25T07:25:13.504Z,13.35
2019-05-25T07:26:13.453Z,13.22
2019-05-25T07:27:13.399Z,13.25
2019-05-25T07:28:13.351Z,13.19
2019-05-25T07:29:13.304Z,13.19
2019-05-25T07:30:13.266Z,13.22
2019-05-25T07:31:13.199Z,13.16
2019-05-25T07:32:13.140Z,13.19
2019-05-25T07:33:13.102Z,13.23
2019-05-25T07:34:13.065Z,13.20
2019-05-25T07:35:12.990Z,13.20
2019-05-25T07:36:12.949Z,13.19
2019-05-25T07:37:12.911Z,13.13
2019-05-25T07:38:12.866Z,13.19
2019-05-25T07:39:12.786Z,13.19
2019-05-25T07:40:12.745Z,13.23
2019-05-25T07:41:12.686Z,13.15
2019-05-25T07:42:12.654Z,13.15
2019-05-25T07:43:12.585Z,13.18
2019-05-25T07:44:12.548Z,13.22
2019-05-25T07:45:12.496Z,13.12
2019-05-25T07:46:12.450Z,13.11
2019-05-25T07:47:12.409Z,13.04
2019-05-25T07:48:12.342Z,13.08
2019-05-25T07:49:12.286Z,13.11
2019-05-25T07:50:12.242Z,13.13
2019-05-25T07:51:12.181Z,13.11
2019-05-25T07:52:12.144Z,13.13
2019-05-25T07:53:12.102Z,13.09
2019-05-25T07:54:12.045Z,13.15
2019-05-25T07:55:11.980Z,13.12
2019-05-25T07:56:11.951Z,13.12
2019-05-25T07:57:11.900Z,13.13
2019-05-25T07:58:17.322Z,13.05
2019-05-25T07:59:11.778Z,13.03
2019-05-25T08:00:11.752Z,13.04
2019-05-25T08:01:11.677Z,13.00
2019-05-25T08:02:11.635Z,13.08
2019-05-25T08:03:11.576Z,13.03
2019-05-25T08:04:11.539Z,13.09
2019-05-25T08:05:11.489Z,13.09
2019-05-25T08:06:11.438Z,13.03
2019-05-25T08:07:11.397Z,13.08
2019-05-25T08:08:11.350Z,13.09
2019-05-25T08:09:11.274Z,13.13
2019-05-25T08:10:11.321Z,13.08
2019-05-25T08:11:11.198Z,13.13
2019-05-25T08:12:11.124Z,13.05
2019-05-25T08:13:11.081Z,13.11
2019-05-25T08:14:11.025Z,13.05
2019-05-25T08:15:10.984Z,13.01
2019-05-25T08:16:10.946Z,13.04
2019-05-25T08:17:10.882Z,13.03
2019-05-25T08:18:10.821Z,12.95
2019-05-25T08:19:10.770Z,12.86
2019-05-25T08:20:10.740Z,12.87
2019-05-25T08:21:10.693Z,12.97
2019-05-25T08:22:10.618Z,12.91
2019-05-25T08:23:10.594Z,12.94
2019-05-25T08:24:10.518Z,12.95
2019-05-25T08:25:10.471Z,12.97
2019-05-25T08:26:10.416Z,12.98
2019-05-25T08:27:10.379Z,13.04
2019-05-25T08:28:10.328Z,13.04
2019-05-25T08:29:10.278Z,12.98
2019-05-25T08:30:10.223Z,13.01
2019-05-25T08:31:10.164Z,13.12
2019-05-25T08:32:10.125Z,13.08
2019-05-25T08:33:10.081Z,13.16
2019-05-25T08:34:10.025Z,13.11
2019-05-25T08:35:09.984Z,13.11
2019-05-25T08:36:09.959Z,13.03
2019-05-25T08:37:09.862Z,13.03
2019-05-25T08:38:09.824Z,13.00
2019-05-25T08:39:09.783Z,13.04
2019-05-25T08:40:09.722Z,12.97
2019-05-25T08:41:09.685Z,13.04
2019-05-25T08:42:09.609Z,13.05
2019-05-25T08:43:09.583Z,13.18
2019-05-25T08:44:09.533Z,13.13
2019-05-25T08:45:09.471Z,13.15
2019-05-25T08:46:09.421Z,13.13
2019-05-25T08:47:09.376Z,13.01
2019-05-25T08:48:09.320Z,13.11
2019-05-25T08:49:09.280Z,13.13
2019-05-25T08:50:09.229Z,13.16
2019-05-25T08:51:09.171Z,13.13
2019-05-25T08:52:09.130Z,13.12
2019-05-25T08:53:09.080Z,13.09
2019-05-25T08:54:09.063Z,13.03
2019-05-25T08:55:08.917Z,13.03
2019-05-25T08:56:08.917Z,12.97
2019-05-25T08:57:08.866Z,13.00
2019-05-25T08:58:08.827Z,13.01
2019-05-25T08:59:08.776Z,12.97
2019-05-25T09:00:08.715Z,12.95
2019-05-25T09:01:08.675Z,12.97
2019-05-25T09:02:08.610Z,12.90
2019-05-25T09:03:08.560Z,12.85
2019-05-25T09:04:08.500Z,12.83
2019-05-25T09:05:08.451Z,12.82
2019-05-25T09:06:08.424Z,12.75
2019-05-25T09:07:08.350Z,12.75
2019-05-25T09:08:08.320Z,12.72
2019-05-25T09:09:08.253Z,12.61
2019-05-25T09:10:08.211Z,12.72
2019-05-25T09:11:08.156Z,12.76
2019-05-25T09:12:08.096Z,12.76
2019-05-25T09:13:08.054Z,12.75
2019-05-25T09:14:07.995Z,12.68
2019-05-25T09:15:07.970Z,12.58
2019-05-25T09:16:07.907Z,12.76
2019-05-25T09:17:07.844Z,12.73
2019-05-25T09:18:07.801Z,12.58
2019-05-25T09:19:07.755Z,12.70
2019-05-25T09:20:07.715Z,12.70
2019-05-25T09:21:07.674Z,12.60
2019-05-25T09:22:07.600Z,12.47
2019-05-25T09:23:07.539Z,12.57
2019-05-25T09:24:07.497Z,12.50
2019-05-25T09:25:07.466Z,12.50
2019-05-25T09:26:07.392Z,12.46
2019-05-25T09:27:07.364Z,12.49
2019-05-25T09:28:07.285Z,12.50
2019-05-25T09:29:07.250Z,12.49
2019-05-25T09:30:07.188Z,12.64
2019-05-25T09:31:07.145Z,12.50
2019-05-25T09:32:07.332Z,12.50
2019-05-25T09:33:07.059Z,12.50
2019-05-25T09:34:06.994Z,12.47
2019-05-25T09:35:06.955Z,12.46
2019-05-25T09:36:06.896Z,12.40
2019-05-25T09:37:06.841Z,12.43
2019-05-25T09:38:06.778Z,12.45
2019-05-25T09:39:06.749Z,12.49
2019-05-25T09:40:06.707Z,12.61
2019-05-25T09:41:06.647Z,12.49
2019-05-25T09:42:06.588Z,12.53
2019-05-25T09:43:06.526Z,12.49
2019-05-25T09:44:06.498Z,12.65
2019-05-25T09:45:06.434Z,12.61
2019-05-25T09:46:06.398Z,12.64
2019-05-25T09:47:06.321Z,12.64
2019-05-25T09:48:06.297Z,12.61
2019-05-25T09:49:06.247Z,12.61
2019-05-25T09:50:06.194Z,12.46
2019-05-25T09:51:15.485Z,12.45
2019-05-25T09:52:06.079Z,12.50
2019-05-25T09:53:06.027Z,12.49
2019-05-25T09:54:05.989Z,12.54
2019-05-25T09:55:06.139Z,12.49
2019-05-25T09:56:05.863Z,12.53
2019-05-25T09:57:05.833Z,12.50
2019-05-25T09:58:05.774Z,12.47
2019-05-25T09:59:19.256Z,12.50
2019-05-25T10:00:05.685Z,12.46
2019-05-25T10:01:05.621Z,12.49
2019-05-25T10:02:05.566Z,12.49
2019-05-25T10:03:05.527Z,12.47
2019-05-25T10:04:05.481Z,12.50
2019-05-25T10:05:05.437Z,12.50
2019-05-25T10:06:12.363Z,12.50
2019-05-25T10:07:05.316Z,12.49
2019-05-25T10:08:05.283Z,12.64
2019-05-25T10:09:05.210Z,12.60
2019-05-25T10:10:05.155Z,12.61
2019-05-25T10:11:05.115Z,12.61
2019-05-25T10:12:05.059Z,12.60
2019-05-25T10:13:05.020Z,12.65
2019-05-25T10:14:04.987Z,12.64
2019-05-25T10:15:05.102Z,12.64
2019-05-25T10:16:04.860Z,12.55
2019-05-25T10:17:04.807Z,12.67
2019-05-25T10:18:04.745Z,12.73
2019-05-25T10:19:04.695Z,12.76
2019-05-25T10:20:04.658Z,12.75
2019-05-25T10:21:04.593Z,12.73
2019-05-25T10:22:04.567Z,12.73
2019-05-25T10:23:04.515Z,12.65
2019-05-25T10:24:04.453Z,12.70
2019-05-25T10:25:04.393Z,12.83
2019-05-25T10:26:04.393Z,12.94
2019-05-25T10:27:04.314Z,13.22
2019-05-25T10:28:04.253Z,13.79
2019-05-25T10:29:04.204Z,14.59
2019-05-25T10:30:04.137Z,15.46
2019-05-25T10:31:04.106Z,16.36
2019-05-25T10:32:04.050Z,16.79
2019-05-25T10:33:04.003Z,16.84
2019-05-25T10:34:03.960Z,17.16
2019-05-25T10:35:03.902Z,17.54
2019-05-25T10:36:03.850Z,17.64
2019-05-25T10:37:03.809Z,17.92
2019-05-25T10:38:03.745Z,18.07
2019-05-25T10:39:03.697Z,18.29
2019-05-25T10:40:03.669Z,18.66
2019-05-25T10:41:03.609Z,18.81
2019-05-25T10:42:03.578Z,19.16
2019-05-25T10:43:03.525Z,19.33
2019-05-25T10:44:03.459Z,19.22
2019-05-25T10:45:03.413Z,19.14
2019-05-25T10:46:03.368Z,18.88
2019-05-25T10:47:03.343Z,18.89
2019-05-25T10:48:03.286Z,18.49
2019-05-25T10:49:03.250Z,18.50
2019-05-25T10:50:03.188Z,17.95
2019-05-25T10:51:03.138Z,17.64
2019-05-25T10:52:03.097Z,17.76
2019-05-25T10:53:03.041Z,17.78
2019-05-25T10:54:03.020Z,17.56
2019-05-25T10:55:02.960Z,17.44
2019-05-25T10:56:02.900Z,16.90
2019-05-25T10:57:02.881Z,16.51
2019-05-25T10:58:02.820Z,16.72
2019-05-25T10:59:02.765Z,17.11
2019-05-25T11:00:02.732Z,17.02
2019-05-25T11:01:02.694Z,16.93
2019-05-25T11:02:02.635Z,17.11
2019-05-25T11:03:02.583Z,17.02
2019-05-25T11:04:02.553Z,17.33
2019-05-25T11:05:02.481Z,17.33
2019-05-25T11:06:02.460Z,17.45
2019-05-25T11:07:02.401Z,17.72
2019-05-25T11:08:02.363Z,17.86
2019-05-25T11:09:02.310Z,17.82
2019-05-25T11:10:02.250Z,18.18
2019-05-25T11:11:02.212Z,18.04
2019-05-25T11:12:02.185Z,18.08
2019-05-25T11:13:02.135Z,17.85
2019-05-25T11:14:02.081Z,17.94
2019-05-25T11:15:02.020Z,18.13
2019-05-25T11:16:01.986Z,18.15
2019-05-25T11:17:01.991Z,17.92
2019-05-25T11:18:01.905Z,18.10
2019-05-25T11:19:01.846Z,17.92
2019-05-25T11:20:01.811Z,17.86
2019-05-25T11:21:01.755Z,17.51
2019-05-25T11:22:01.721Z,17.11
2019-05-25T11:23:01.661Z,16.89
2019-05-25T11:24:01.628Z,16.78
2019-05-25T11:25:01.573Z,16.26
2019-05-25T11:26:01.524Z,15.98
2019-05-25T11:27:01.479Z,15.68
2019-05-25T11:28:01.429Z,15.44
2019-05-25T11:29:01.395Z,15.29
2019-05-25T11:30:08.851Z,15.14
2019-05-25T11:31:01.292Z,15.15
2019-05-25T11:32:04.749Z,15.03
2019-05-25T11:33:01.194Z,15.02
2019-05-25T11:34:01.177Z,15.06
2019-05-25T11:35:01.087Z,15.03
2019-05-25T11:36:01.069Z,15.02
2019-05-25T11:37:01.003Z,15.06
2019-05-25T11:38:00.953Z,14.97
2019-05-25T11:39:00.917Z,14.94
2019-05-25T11:40:00.849Z,14.96
2019-05-25T11:41:00.814Z,14.94
2019-05-25T11:42:00.774Z,15.09
2019-05-25T11:43:00.707Z,15.09
2019-05-25T11:44:00.668Z,15.14
2019-05-25T11:45:00.607Z,15.07
2019-05-25T11:46:00.571Z,14.99
2019-05-25T11:47:00.519Z,14.97
2019-05-25T11:48:00.488Z,14.81
2019-05-25T11:49:00.435Z,14.91
2019-05-25T11:50:00.377Z,14.96
2019-05-25T11:51:00.317Z,15.09
2019-05-25T11:52:00.282Z,15.15
2019-05-25T11:53:00.176Z,15.22
2019-05-25T11:54:00.172Z,15.24
2019-05-25T11:55:00.150Z,15.42
2019-05-25T11:56:00.097Z,15.43
2019-05-25T11:57:00.023Z,15.46
2019-05-25T11:58:00.000Z,15.46
2019-05-25T11:58:59.949Z,15.47
2019-05-25T11:59:59.890Z,15.61
2019-05-25T12:00:59.828Z,15.82
2019-05-25T12:01:59.804Z,15.98
2019-05-25T12:02:59.752Z,16.20
2019-05-25T12:03:59.682Z,16.00
2019-05-25T12:04:59.668Z,15.98
2019-05-25T12:05:59.585Z,15.92
2019-05-25T12:06:59.536Z,15.94
2019-05-25T12:07:59.496Z,15.79
2019-05-25T12:08:59.451Z,15.90
2019-05-25T12:09:59.392Z,16.00
2019-05-25T12:10:59.355Z,15.76
2019-05-25T12:11:59.306Z,15.79
2019-05-25T12:12:59.259Z,15.77
2019-05-25T12:13:59.209Z,15.80
2019-05-25T12:14:59.158Z,15.98
2019-05-25T12:15:59.121Z,15.92
2019-05-25T12:16:59.062Z,15.84
2019-05-25T12:17:59.012Z,15.73
2019-05-25T12:18:58.977Z,15.79
2019-05-25T12:19:58.929Z,15.72
2019-05-25T12:20:58.877Z,15.75
2019-05-25T12:21:58.834Z,15.68
2019-05-25T12:22:58.783Z,15.80
2019-05-25T12:23:58.726Z,15.82
2019-05-25T12:24:58.675Z,16.00
2019-05-25T12:25:58.624Z,16.01
2019-05-25T12:26:58.563Z,16.04
2019-05-25T12:27:58.529Z,16.05
2019-05-25T12:28:58.482Z,16.33
2019-05-25T12:29:58.427Z,16.35
2019-05-25T12:30:58.391Z,16.33
2019-05-25T12:32:04.037Z,16.24
2019-05-25T12:32:58.286Z,16.24
2019-05-25T12:33:58.236Z,16.33
2019-05-25T12:34:58.175Z,16.46
2019-05-25T12:35:58.141Z,16.53
2019-05-25T12:36:58.077Z,16.61
2019-05-25T12:37:58.030Z,16.58
2019-05-25T12:38:57.994Z,16.58
2019-05-25T12:39:57.933Z,16.71
2019-05-25T12:40:57.905Z,16.72
2019-05-25T12:41:57.860Z,16.74
2019-05-25T12:42:57.799Z,16.84
2019-05-25T12:43:57.740Z,16.74
2019-05-25T12:44:57.714Z,16.71
2019-05-25T12:45:57.650Z,16.76
2019-05-25T12:46:57.593Z,16.72
2019-05-25T12:47:57.556Z,16.60
2019-05-25T12:48:57.496Z,16.54
2019-05-25T12:49:57.460Z,16.57
2019-05-25T12:50:57.405Z,16.39
2019-05-25T12:51:57.313Z,16.35